Webster, Wisconsin
Current Conditions -  °F | °C
As of 8:55 AM on Friday 19 Dec 2014 (Local Time) from KRZN Reporting Station
Overcast Overcast  
Wind Chill: 17°   Ceiling: 5000
Heat Index: 23°   Visibility: 7mi
Dew Point: 20°   Wind: 5mph
Humidity: 85%   Direction: 150°SSE
Pressure: 30.25"   Gusts: NA
Location:  45.88°N, 92.37°W
Report Text: KRZN 191455Z AUTO 15004KT 7SM SCT012 OVC050 M05/M07 A3025 RMK AO2 T10481069
Loading
Personal Weather Stations






























Interactive Weather Map New forecast layout! Learn more

10-Day Weather Forecast

Advertisements
Track Severe Weather on mobile